sensor_id;sensor_type;location;lat;lon;timestamp;pressure;altitude;pressure_sealevel;temperature;humidity
44001;BME280;29660;42.892;24.710;2023-04-27T00:04:15;96725.50;;;8.47;100.00
44001;BME280;29660;42.892;24.710;2023-04-27T00:09:37;96598.34;;;7.72;100.00
44001;BME280;29660;42.892;24.710;2023-04-27T00:14:59;96407.03;;;6.36;100.00
44001;BME280;29660;42.892;24.710;2023-04-27T00:20:22;96336.06;;;5.94;100.00
44001;BME280;29660;42.892;24.710;2023-04-27T00:25:44;96722.09;;;8.36;100.00
44001;BME280;29660;42.892;24.710;2023-04-27T00:31:06;96368.81;;;6.03;100.00
44001;BME280;29660;42.892;24.710;2023-04-27T00:36:28;96729.84;;;8.38;100.00
44001;BME280;29660;42.892;24.710;2023-04-27T00:41:50;96733.50;;;8.42;100.00
44001;BME280;29660;42.892;24.710;2023-04-27T00:47:14;96720.59;;;8.25;100.00
44001;BME280;29660;42.892;24.710;2023-04-27T00:52:38;96428.75;;;6.38;100.00
44001;BME280;29660;42.892;24.710;2023-04-27T00:58:00;96672.47;;;7.97;100.00
44001;BME280;29660;42.892;24.710;2023-04-27T01:03:22;96738.03;;;8.36;100.00
44001;BME280;29660;42.892;24.710;2023-04-27T01:08:44;96621.34;;;7.47;100.00
44001;BME280;29660;42.892;24.710;2023-04-27T01:14:07;96730.47;;;8.19;100.00
44001;BME280;29660;42.892;24.710;2023-04-27T01:19:30;96386.84;;;5.91;100.00
44001;BME280;29660;42.892;24.710;2023-04-27T01:24:52;96740.81;;;8.21;100.00
44001;BME280;29660;42.892;24.710;2023-04-27T01:30:15;96585.47;;;7.16;100.00
44001;BME280;29660;42.892;24.710;2023-04-27T01:35:37;96422.84;;;6.02;100.00
44001;BME280;29660;42.892;24.710;2023-04-27T01:40:59;96650.53;;;7.47;100.00
44001;BME280;29660;42.892;24.710;2023-04-27T01:46:23;96511.03;;;6.57;100.00
44001;BME280;29660;42.892;24.710;2023-04-27T01:51:45;96710.31;;;7.79;100.00
44001;BME280;29660;42.892;24.710;2023-04-27T01:57:10;96471.47;;;6.22;100.00
44001;BME280;29660;42.892;24.710;2023-04-27T02:02:33;96464.06;;;6.19;100.00
44001;BME280;29660;42.892;24.710;2023-04-27T02:07:55;96756.50;;;8.17;100.00
44001;BME280;29660;42.892;24.710;2023-04-27T02:13:17;96726.25;;;7.79;100.00
44001;BME280;29660;42.892;24.710;2023-04-27T02:18:39;96509.78;;;6.45;100.00
44001;BME280;29660;42.892;24.710;2023-04-27T02:24:03;96707.22;;;7.61;100.00
44001;BME280;29660;42.892;24.710;2023-04-27T02:29:29;96474.69;;;6.03;100.00
44001;BME280;29660;42.892;24.710;2023-04-27T02:34:51;96732.72;;;7.62;100.00
44001;BME280;29660;42.892;24.710;2023-04-27T02:40:13;96470.75;;;5.90;100.00
44001;BME280;29660;42.892;24.710;2023-04-27T02:45:36;96518.09;;;6.07;100.00
44001;BME280;29660;42.892;24.710;2023-04-27T02:51:02;96752.91;;;7.58;100.00
44001;BME280;29660;42.892;24.710;2023-04-27T02:56:25;96509.88;;;6.09;100.00
44001;BME280;29660;42.892;24.710;2023-04-27T03:01:47;96494.31;;;5.92;100.00
44001;BME280;29660;42.892;24.710;2023-04-27T03:07:09;96761.31;;;7.71;100.00
44001;BME280;29660;42.892;24.710;2023-04-27T03:12:33;96710.84;;;7.31;100.00
44001;BME280;29660;42.892;24.710;2023-04-27T03:17:55;96755.28;;;7.60;100.00
44001;BME280;29660;42.892;24.710;2023-04-27T03:23:17;96530.78;;;6.15;100.00
44001;BME280;29660;42.892;24.710;2023-04-27T03:28:39;96774.09;;;7.63;100.00
44001;BME280;29660;42.892;24.710;2023-04-27T03:34:02;96737.25;;;7.52;100.00
44001;BME280;29660;42.892;24.710;2023-04-27T03:39:26;96715.81;;;7.38;100.00
44001;BME280;29660;42.892;24.710;2023-04-27T03:44:48;96797.59;;;7.85;100.00
44001;BME280;29660;42.892;24.710;2023-04-27T03:50:10;96733.88;;;7.36;100.00
44001;BME280;29660;42.892;24.710;2023-04-27T03:55:33;96564.66;;;6.29;100.00
44001;BME280;29660;42.892;24.710;2023-04-27T04:00:55;96789.94;;;7.79;100.00
44001;BME280;29660;42.892;24.710;2023-04-27T04:06:18;96794.16;;;7.90;100.00
44001;BME280;29660;42.892;24.710;2023-04-27T04:11:40;96522.91;;;5.95;100.00
44001;BME280;29660;42.892;24.710;2023-04-27T04:17:08;96576.28;;;6.28;100.00
44001;BME280;29660;42.892;24.710;2023-04-27T04:22:30;96605.16;;;6.29;100.00
44001;BME280;29660;42.892;24.710;2023-04-27T04:27:54;96759.09;;;7.33;100.00
44001;BME280;29660;42.892;24.710;2023-04-27T04:33:16;96599.09;;;6.29;100.00
44001;BME280;29660;42.892;24.710;2023-04-27T04:38:38;96546.97;;;5.99;100.00
44001;BME280;29660;42.892;24.710;2023-04-27T04:44:00;96832.81;;;8.01;100.00
44001;BME280;29660;42.892;24.710;2023-04-27T04:49:22;96557.00;;;6.12;100.00
44001;BME280;29660;42.892;24.710;2023-04-27T04:54:44;96582.09;;;6.35;100.00
44001;BME280;29660;42.892;24.710;2023-04-27T05:00:07;96845.56;;;8.04;100.00
44001;BME280;29660;42.892;24.710;2023-04-27T05:05:38;96820.44;;;7.81;100.00
44001;BME280;29660;42.892;24.710;2023-04-27T05:11:01;96801.59;;;7.83;100.00
44001;BME280;29660;42.892;24.710;2023-04-27T05:16:23;96543.75;;;6.12;100.00
44001;BME280;29660;42.892;24.710;2023-04-27T05:21:47;96863.47;;;8.33;100.00
44001;BME280;29660;42.892;24.710;2023-04-27T05:27:11;96621.19;;;6.74;100.00
44001;BME280;29660;42.892;24.710;2023-04-27T05:32:33;96594.75;;;6.53;100.00
44001;BME280;29660;42.892;24.710;2023-04-27T05:37:57;96849.25;;;8.14;100.00
44001;BME280;29660;42.892;24.710;2023-04-27T05:43:19;96589.72;;;6.57;100.00
44001;BME280;29660;42.892;24.710;2023-04-27T05:48:42;96833.31;;;8.14;100.00
44001;BME280;29660;42.892;24.710;2023-04-27T05:54:04;96897.94;;;8.53;100.00
44001;BME280;29660;42.892;24.710;2023-04-27T05:59:26;96574.88;;;6.61;100.00
44001;BME280;29660;42.892;24.710;2023-04-27T06:04:50;96574.53;;;6.78;100.00
44001;BME280;29660;42.892;24.710;2023-04-27T06:10:13;96871.94;;;8.84;100.00
44001;BME280;29660;42.892;24.710;2023-04-27T06:15:35;96601.09;;;7.17;100.00
44001;BME280;29660;42.892;24.710;2023-04-27T06:20:59;96818.16;;;8.58;100.00
44001;BME280;29660;42.892;24.710;2023-04-27T06:26:22;96625.63;;;7.43;96.58
44001;BME280;29660;42.892;24.710;2023-04-27T06:31:44;96812.84;;;8.58;100.00
44001;BME280;29660;42.892;24.710;2023-04-27T06:37:06;96829.38;;;8.50;94.61
44001;BME280;29660;42.892;24.710;2023-04-27T06:42:29;96865.72;;;8.94;95.58
44001;BME280;29660;42.892;24.710;2023-04-27T06:47:51;96637.22;;;7.52;94.65
44001;BME280;29660;42.892;24.710;2023-04-27T06:53:13;96609.69;;;7.43;91.90
44001;BME280;29660;42.892;24.710;2023-04-27T06:58:35;96857.56;;;9.15;84.46
44001;BME280;29660;42.892;24.710;2023-04-27T07:03:58;96623.91;;;7.62;86.93
44001;BME280;29660;42.892;24.710;2023-04-27T07:09:20;96853.84;;;9.16;81.82
44001;BME280;29660;42.892;24.710;2023-04-27T07:14:47;96823.56;;;9.06;83.23
44001;BME280;29660;42.892;24.710;2023-04-27T07:20:11;96618.44;;;7.78;79.18
44001;BME280;29660;42.892;24.710;2023-04-27T07:25:35;96835.88;;;9.26;81.74
44001;BME280;29660;42.892;24.710;2023-04-27T07:30:57;96879.47;;;9.59;74.63
44001;BME280;29660;42.892;24.710;2023-04-27T07:36:19;96596.75;;;7.71;74.87
44001;BME280;29660;42.892;24.710;2023-04-27T07:41:41;96604.56;;;7.91;74.37
44001;BME280;29660;42.892;24.710;2023-04-27T07:47:03;96548.31;;;7.84;72.14
44001;BME280;29660;42.892;24.710;2023-04-27T07:52:26;96732.97;;;9.22;73.27
44001;BME280;29660;42.892;24.710;2023-04-27T07:57:49;96805.97;;;9.82;71.20
44001;BME280;29660;42.892;24.710;2023-04-27T08:03:11;96618.63;;;8.74;74.71
44001;BME280;29660;42.892;24.710;2023-04-27T08:08:33;96843.03;;;10.22;67.92
44001;BME280;29660;42.892;24.710;2023-04-27T08:13:55;96891.00;;;10.97;72.08
44001;BME280;29660;42.892;24.710;2023-04-27T08:19:18;96859.75;;;10.98;63.38
44001;BME280;29660;42.892;24.710;2023-04-27T08:24:40;96454.78;;;8.59;65.91
44001;BME280;29660;42.892;24.710;2023-04-27T08:30:02;96619.41;;;10.06;66.75
44001;BME280;29660;42.892;24.710;2023-04-27T08:35:24;96866.78;;;11.82;61.28
44001;BME280;29660;42.892;24.710;2023-04-27T08:40:46;96639.31;;;10.28;63.07
44001;BME280;29660;42.892;24.710;2023-04-27T08:46:08;96864.81;;;12.15;60.40
44001;BME280;29660;42.892;24.710;2023-04-27T08:51:31;96844.81;;;11.98;59.36
44001;BME280;29660;42.892;24.710;2023-04-27T08:56:54;96405.13;;;9.25;59.75
44001;BME280;29660;42.892;24.710;2023-04-27T09:02:19;96621.59;;;10.92;55.37
44001;BME280;29660;42.892;24.710;2023-04-27T09:07:42;96870.00;;;12.47;56.68
44001;BME280;29660;42.892;24.710;2023-04-27T09:13:04;96877.56;;;12.90;54.38
44001;BME280;29660;42.892;24.710;2023-04-27T09:18:26;96855.00;;;13.05;55.47
44001;BME280;29660;42.892;24.710;2023-04-27T09:23:49;96636.44;;;11.85;54.71
44001;BME280;29660;42.892;24.710;2023-04-27T09:29:12;96878.19;;;13.10;54.23
44001;BME280;29660;42.892;24.710;2023-04-27T09:34:38;96868.25;;;13.10;52.45
44001;BME280;29660;42.892;24.710;2023-04-27T12:24:43;96658.47;;;12.35;53.20
44001;BME280;29660;42.892;24.710;2023-04-27T12:30:05;96807.97;;;13.13;55.38
44001;BME280;29660;42.892;24.710;2023-04-27T12:35:28;96628.97;;;11.95;55.54
44001;BME280;29660;42.892;24.710;2023-04-27T12:40:52;96826.06;;;13.38;54.37
44001;BME280;29660;42.892;24.710;2023-04-27T12:46:14;96836.94;;;13.42;54.20
44001;BME280;29660;42.892;24.710;2023-04-27T12:51:37;96691.03;;;12.68;54.57
44001;BME280;29660;42.892;24.710;2023-04-27T12:56:59;96777.06;;;13.15;54.40
44001;BME280;29660;42.892;24.710;2023-04-27T13:02:25;96609.13;;;11.88;54.82
44001;BME280;29660;42.892;24.710;2023-04-27T13:07:47;96637.00;;;11.82;55.74
44001;BME280;29660;42.892;24.710;2023-04-27T13:13:10;96593.06;;;11.29;62.71
44001;BME280;29660;42.892;24.710;2023-04-27T13:18:32;96654.94;;;11.45;65.21
44001;BME280;29660;42.892;24.710;2023-04-27T13:23:55;96792.97;;;12.58;63.15
44001;BME280;29660;42.892;24.710;2023-04-27T13:29:21;96841.06;;;13.17;61.28
44001;BME280;29660;42.892;24.710;2023-04-27T13:34:45;96839.59;;;13.33;62.47
44001;BME280;29660;42.892;24.710;2023-04-27T13:40:08;96521.13;;;11.24;56.65
44001;BME280;29660;42.892;24.710;2023-04-27T13:45:31;96787.19;;;12.87;65.33
44001;BME280;29660;42.892;24.710;2023-04-27T13:50:54;96628.28;;;11.67;61.39
44001;BME280;29660;42.892;24.710;2023-04-27T13:56:16;96855.59;;;13.02;63.28
44001;BME280;29660;42.892;24.710;2023-04-27T14:01:38;96599.59;;;11.37;64.34
44001;BME280;29660;42.892;24.710;2023-04-27T14:07:00;96626.22;;;11.50;61.58
44001;BME280;29660;42.892;24.710;2023-04-27T14:12:22;96859.19;;;12.97;64.51
44001;BME280;29660;42.892;24.710;2023-04-27T14:17:45;96618.47;;;11.26;64.74
44001;BME280;29660;42.892;24.710;2023-04-27T14:23:08;96857.78;;;12.55;67.77
44001;BME280;29660;42.892;24.710;2023-04-27T14:28:30;96601.25;;;10.69;68.78
44001;BME280;29660;42.892;24.710;2023-04-27T14:33:52;96663.59;;;11.28;66.51
44001;BME280;29660;42.892;24.710;2023-04-27T14:39:14;96864.59;;;12.61;66.64
44001;BME280;29660;42.892;24.710;2023-04-27T14:44:36;96760.47;;;12.06;64.97
44001;BME280;29660;42.892;24.710;2023-04-27T14:49:59;96833.41;;;12.57;69.82
44001;BME280;29660;42.892;24.710;2023-04-27T14:55:21;96610.47;;;11.26;60.32
44001;BME280;29660;42.892;24.710;2023-04-27T15:00:45;96642.50;;;11.40;53.26
44001;BME280;29660;42.892;24.710;2023-04-27T15:06:07;96640.34;;;11.28;50.22
44001;BME280;29660;42.892;24.710;2023-04-27T15:11:29;96637.59;;;11.06;50.92
44001;BME280;29660;42.892;24.710;2023-04-27T15:16:51;96903.66;;;12.85;52.88
44001;BME280;29660;42.892;24.710;2023-04-27T15:22:13;96639.88;;;11.13;54.29
44001;BME280;29660;42.892;24.710;2023-04-27T15:27:36;96855.03;;;12.46;51.54
44001;BME280;29660;42.892;24.710;2023-04-27T15:32:58;96733.56;;;11.52;50.67
44001;BME280;29660;42.892;24.710;2023-04-27T15:38:20;96904.03;;;12.69;51.59
44001;BME280;29660;42.892;24.710;2023-04-27T15:43:42;96661.41;;;11.16;49.49
44001;BME280;29660;42.892;24.710;2023-04-27T15:49:04;96589.97;;;10.72;51.84
44001;BME280;29660;42.892;24.710;2023-04-27T15:54:26;96655.69;;;10.95;54.58
44001;BME280;29660;42.892;24.710;2023-04-27T15:59:48;96702.25;;;11.17;54.85
44001;BME280;29660;42.892;24.710;2023-04-27T16:05:11;96682.66;;;10.94;55.50
44001;BME280;29660;42.892;24.710;2023-04-27T16:10:33;96989.28;;;12.35;60.42
44001;BME280;29660;42.892;24.710;2023-04-27T16:15:55;96682.03;;;10.23;57.17
44001;BME280;29660;42.892;24.710;2023-04-27T16:21:17;96892.00;;;11.48;59.26
44001;BME280;29660;42.892;24.710;2023-04-27T16:26:39;96958.38;;;11.54;60.07
44001;BME280;29660;42.892;24.710;2023-04-27T16:32:02;96939.72;;;11.36;58.16
44001;BME280;29660;42.892;24.710;2023-04-27T16:37:24;96786.25;;;10.40;58.45
44001;BME280;29660;42.892;24.710;2023-04-27T16:42:46;96699.78;;;9.95;57.96
44001;BME280;29660;42.892;24.710;2023-04-27T16:48:08;96967.91;;;11.61;60.06
44001;BME280;29660;42.892;24.710;2023-04-27T16:53:31;96977.59;;;11.57;62.78
44001;BME280;29660;42.892;24.710;2023-04-27T16:58:53;96696.13;;;9.72;62.50
44001;BME280;29660;42.892;24.710;2023-04-27T17:04:15;96927.97;;;11.04;66.48
44001;BME280;29660;42.892;24.710;2023-04-27T17:09:37;96969.59;;;11.24;67.14
44001;BME280;29660;42.892;24.710;2023-04-27T17:15:00;96732.53;;;9.57;66.30
44001;BME280;29660;42.892;24.710;2023-04-27T17:20:22;97007.44;;;11.26;66.79
44001;BME280;29660;42.892;24.710;2023-04-27T17:25:44;97023.75;;;11.24;69.86
44001;BME280;29660;42.892;24.710;2023-04-27T17:31:06;97033.44;;;11.20;73.52
44001;BME280;29660;42.892;24.710;2023-04-27T17:36:28;97012.56;;;11.03;75.40
44001;BME280;29660;42.892;24.710;2023-04-27T17:41:50;97035.44;;;11.10;73.48
44001;BME280;29660;42.892;24.710;2023-04-27T17:47:13;96922.88;;;10.32;72.27
44001;BME280;29660;42.892;24.710;2023-04-27T17:52:35;96737.56;;;8.92;72.85
44001;BME280;29660;42.892;24.710;2023-04-27T17:57:57;97063.63;;;10.78;72.00
44001;BME280;29660;42.892;24.710;2023-04-27T18:03:19;96790.53;;;9.13;67.44
44001;BME280;29660;42.892;24.710;2023-04-27T18:08:42;96821.84;;;9.21;60.64
44001;BME280;29660;42.892;24.710;2023-04-27T18:14:04;96749.84;;;8.59;60.24
44001;BME280;29660;42.892;24.710;2023-04-27T18:19:26;96753.16;;;8.46;58.83
44001;BME280;29660;42.892;24.710;2023-04-27T18:24:48;96832.22;;;8.93;57.78
44001;BME280;29660;42.892;24.710;2023-04-27T18:30:10;96948.13;;;9.63;58.08
44001;BME280;29660;42.892;24.710;2023-04-27T18:35:32;97085.41;;;10.37;56.98
44001;BME280;29660;42.892;24.710;2023-04-27T18:40:54;97072.47;;;10.25;57.72
44001;BME280;29660;42.892;24.710;2023-04-27T18:46:17;96798.03;;;8.47;57.20
44001;BME280;29660;42.892;24.710;2023-04-27T18:51:39;97101.75;;;10.30;56.95
44001;BME280;29660;42.892;24.710;2023-04-27T18:57:01;96833.97;;;8.40;55.69
44001;BME280;29660;42.892;24.710;2023-04-27T19:02:25;96993.41;;;9.28;55.60
44001;BME280;29660;42.892;24.710;2023-04-27T19:07:48;97093.81;;;9.91;54.88
44001;BME280;29660;42.892;24.710;2023-04-27T19:13:10;97128.09;;;10.03;54.59
44001;BME280;29660;42.892;24.710;2023-04-27T19:18:33;97134.25;;;9.98;56.00
44001;BME280;29660;42.892;24.710;2023-04-27T19:23:55;96927.63;;;8.60;55.66
44001;BME280;29660;42.892;24.710;2023-04-27T19:29:17;97076.53;;;9.54;56.09
44001;BME280;29660;42.892;24.710;2023-04-27T19:34:39;96875.81;;;8.14;55.08
44001;BME280;29660;42.892;24.710;2023-04-27T19:40:01;96868.66;;;8.09;54.52
44001;BME280;29660;42.892;24.710;2023-04-27T19:45:24;96911.31;;;8.28;53.28
44001;BME280;29660;42.892;24.710;2023-04-27T19:50:46;97099.19;;;9.47;55.26
44001;BME280;29660;42.892;24.710;2023-04-27T19:56:08;97103.50;;;9.43;54.02
44001;BME280;29660;42.892;24.710;2023-04-27T20:01:30;96636.66;;;6.36;54.37
44001;BME280;29660;42.892;24.710;2023-04-27T20:06:52;96851.56;;;7.71;54.73
44001;BME280;29660;42.892;24.710;2023-04-27T20:12:14;97114.50;;;9.26;53.59
44001;BME280;29660;42.892;24.710;2023-04-27T20:17:57;96989.44;;;8.37;54.92
44001;BME280;29660;42.892;24.710;2023-04-27T20:23:19;97151.25;;;9.24;54.29
44001;BME280;29660;42.892;24.710;2023-04-27T20:28:41;97133.75;;;9.07;53.63
44001;BME280;29660;42.892;24.710;2023-04-27T20:34:03;96896.22;;;7.38;53.92
44001;BME280;29660;42.892;24.710;2023-04-27T20:39:25;96898.63;;;7.34;54.34
44001;BME280;29660;42.892;24.710;2023-04-27T20:44:47;97121.66;;;8.81;53.56
44001;BME280;29660;42.892;24.710;2023-04-27T20:50:09;97201.50;;;9.30;53.93
44001;BME280;29660;42.892;24.710;2023-04-27T20:55:32;97175.81;;;9.05;52.91
44001;BME280;29660;42.892;24.710;2023-04-27T21:00:55;97143.75;;;8.76;52.56
44001;BME280;29660;42.892;24.710;2023-04-27T21:06:17;97192.88;;;8.94;51.82
44001;BME280;29660;42.892;24.710;2023-04-27T21:11:39;97186.13;;;9.17;52.74
44001;BME280;29660;42.892;24.710;2023-04-27T21:17:01;97192.22;;;9.28;51.43
44001;BME280;29660;42.892;24.710;2023-04-27T21:22:23;97147.16;;;8.92;50.26
44001;BME280;29660;42.892;24.710;2023-04-27T21:27:45;96907.38;;;7.40;50.37
44001;BME280;29660;42.892;24.710;2023-04-27T21:33:07;97149.81;;;8.92;50.98
44001;BME280;29660;42.892;24.710;2023-04-27T21:38:29;97203.41;;;9.25;50.62
44001;BME280;29660;42.892;24.710;2023-04-27T21:43:52;97203.41;;;9.25;50.16
44001;BME280;29660;42.892;24.710;2023-04-27T21:49:14;96941.84;;;7.55;50.51
44001;BME280;29660;42.892;24.710;2023-04-27T21:54:36;96927.53;;;7.41;50.43
44001;BME280;29660;42.892;24.710;2023-04-27T21:59:58;96971.81;;;7.66;49.72
44001;BME280;29660;42.892;24.710;2023-04-27T22:05:20;96909.78;;;7.26;51.03
44001;BME280;29660;42.892;24.710;2023-04-27T22:10:43;97107.91;;;8.48;50.12
44001;BME280;29660;42.892;24.710;2023-04-27T22:16:05;97185.44;;;8.96;48.92
44001;BME280;29660;42.892;24.710;2023-04-27T22:21:27;96924.38;;;7.29;49.47
44001;BME280;29660;42.892;24.710;2023-04-27T22:26:49;96922.00;;;7.17;48.59
44001;BME280;29660;42.892;24.710;2023-04-27T22:32:11;97198.97;;;9.00;48.77
44001;BME280;29660;42.892;24.710;2023-04-27T22:37:33;97231.09;;;9.19;49.72
44001;BME280;29660;42.892;24.710;2023-04-27T22:42:56;96893.09;;;7.00;49.88
44001;BME280;29660;42.892;24.710;2023-04-27T22:48:18;97222.84;;;9.15;48.77
44001;BME280;29660;42.892;24.710;2023-04-27T22:53:40;97018.78;;;7.76;49.49
44001;BME280;29660;42.892;24.710;2023-04-27T22:59:02;96981.91;;;7.38;48.59
44001;BME280;29660;42.892;24.710;2023-04-27T23:04:24;97230.38;;;8.98;48.42
44001;BME280;29660;42.892;24.710;2023-04-27T23:09:47;97203.59;;;8.69;50.91
44001;BME280;29660;42.892;24.710;2023-04-27T23:15:10;97231.44;;;8.92;51.79
44001;BME280;29660;42.892;24.710;2023-04-27T23:20:33;97207.81;;;8.75;50.36
44001;BME280;29660;42.892;24.710;2023-04-27T23:25:55;96920.66;;;6.89;50.15
44001;BME280;29660;42.892;24.710;2023-04-27T23:31:17;96890.97;;;6.56;50.47
44001;BME280;29660;42.892;24.710;2023-04-27T23:36:39;97229.91;;;8.55;49.96
44001;BME280;29660;42.892;24.710;2023-04-27T23:42:02;97175.16;;;8.08;51.11
44001;BME280;29660;42.892;24.710;2023-04-27T23:47:24;96892.50;;;6.27;50.67
44001;BME280;29660;42.892;24.710;2023-04-27T23:52:46;97231.28;;;8.37;50.16
44001;BME280;29660;42.892;24.710;2023-04-27T23:58:09;96992.25;;;6.84;50.86
